Acadia Natl Park, Maine
Current Conditions -  °F | °C
As of 12:55 AM on Saturday 20 Dec 2014 (Local Time) from KBHB Reporting Station
Clear Clear  
Wind Chill: 13°   Ceiling: Unl
Heat Index: 25°   Visibility: 10mi
Dew Point: 21°   Wind: 13mph
Humidity: 86%   Direction: 360°N
Pressure: 30.14"   Gusts: NA
Location:  44.3°N, 68.25°W
Report Text: KBHB 200555Z AUTO 36011KT 10SM CLR M04/M06 A3014 RMK AO1 11030 21040 52017
Loading
Personal Weather Stations






























Interactive Weather Map New forecast layout! Learn more

10-Day Weather Forecast

Advertisements
Track Severe Weather on mobile